Time;durP1;ratioP1;P1;durP2;ratioP2;P2;SDS_P1;SDS_P2;PMS_P1;PMS_P2;Temp;Humidity;BMP_temperature;BMP_pressure;BME280_temperature;BME280_humidity;BME280_pressure;Samples;Min_cycle;Max_cycle;Signal;HPM_P1;HPM_P2
2020/12/28 00:00:43;;;;;;;3.30;0.70;;;6.40;99.90;;;;;;5049417;28;20430;-51
2020/12/28 00:03:09;;;;;;;3.60;0.80;;;6.30;99.90;;;;;;5048816;28;20751;-51
2020/12/28 00:05:34;;;;;;;3.27;0.70;;;6.30;99.90;;;;;;5048964;28;20855;-56
2020/12/28 00:08:00;;;;;;;3.60;0.70;;;6.30;99.90;;;;;;5048877;28;20437;-51
2020/12/28 00:10:26;;;;;;;2.60;0.60;;;6.30;99.90;;;;;;5049368;28;20402;-51
2020/12/28 00:12:52;;;;;;;3.80;0.60;;;6.20;99.90;;;;;;5049259;28;20385;-53
2020/12/28 00:15:24;;;;;;;2.78;0.60;;;6.20;99.90;;;;;;5048502;28;20393;-51
2020/12/28 00:17:54;;;;;;;2.78;0.60;;;6.20;99.90;;;;;;5049218;28;20478;-51
2020/12/28 00:20:23;;;;;;;2.70;0.57;;;6.30;99.90;;;;;;5049032;28;20393;-51
2020/12/28 00:22:49;;;;;;;2.60;0.55;;;6.60;99.90;;;;;;5048796;28;20393;-51
2020/12/28 00:25:17;;;;;;;3.08;0.77;;;6.40;99.90;;;;;;5049638;28;20378;-51
2020/12/28 00:27:42;;;;;;;2.80;0.63;;;6.40;99.90;;;;;;5047541;28;20420;-51
2020/12/28 00:30:08;;;;;;;2.83;0.60;;;6.50;99.90;;;;;;5050379;28;20381;-51
2020/12/28 00:32:35;;;;;;;2.45;0.40;;;6.60;99.90;;;;;;5050040;28;20416;-58
2020/12/28 00:35:03;;;;;;;2.65;0.60;;;6.40;99.90;;;;;;5048762;28;20398;-52
2020/12/28 00:37:28;;;;;;;3.40;0.70;;;6.40;99.90;;;;;;5050059;28;20393;-51
2020/12/28 00:39:54;;;;;;;4.00;0.70;;;6.40;99.90;;;;;;5048058;28;20794;-51
2020/12/28 00:42:20;;;;;;;2.50;0.60;;;6.50;99.90;;;;;;5050280;28;20409;-51
2020/12/28 00:44:45;;;;;;;2.90;0.60;;;6.40;99.90;;;;;;5048708;28;20746;-51
2020/12/28 00:47:11;;;;;;;2.90;0.60;;;6.50;99.90;;;;;;5046240;28;20741;-52
2020/12/28 00:49:37;;;;;;;2.80;0.60;;;6.50;99.90;;;;;;5043124;28;20377;-52
2020/12/28 00:52:02;;;;;;;3.30;0.50;;;6.40;99.90;;;;;;5048795;28;20467;-51
2020/12/28 00:54:28;;;;;;;2.78;0.60;;;6.50;99.90;;;;;;5049439;28;20377;-51
2020/12/28 00:56:54;;;;;;;2.53;0.60;;;6.50;99.90;;;;;;5046842;28;21016;-53
2020/12/28 00:59:19;;;;;;;3.07;0.60;;;6.60;99.90;;;;;;5049022;28;20385;-51
2020/12/28 01:01:45;;;;;;;2.80;0.57;;;6.60;99.90;;;;;;5047582;28;20401;-54
2020/12/28 01:04:11;;;;;;;2.70;0.50;;;6.60;99.90;;;;;;5049443;28;20958;-51
2020/12/28 01:06:42;;;;;;;3.00;0.80;;;6.50;99.90;;;;;;5048274;28;20476;-57
2020/12/28 01:09:07;;;;;;;2.70;0.60;;;6.50;99.90;;;;;;5049268;28;20409;-51
2020/12/28 01:11:33;;;;;;;2.90;0.60;;;6.70;99.90;;;;;;5052737;28;20847;-58
2020/12/28 01:13:59;;;;;;;3.10;0.60;;;6.50;99.90;;;;;;5051240;28;20870;-53
2020/12/28 01:16:24;;;;;;;2.88;0.50;;;6.60;99.90;;;;;;5052586;28;20443;-51
2020/12/28 01:18:50;;;;;;;2.70;0.60;;;6.60;99.90;;;;;;5052374;28;20855;-51
2020/12/28 01:21:20;;;;;;;4.85;0.95;;;6.40;99.90;;;;;;5051682;28;20446;-51
2020/12/28 01:23:46;;;;;;;2.80;0.60;;;6.40;99.90;;;;;;5051644;28;20417;-52
2020/12/28 01:26:12;;;;;;;2.70;0.60;;;6.10;99.90;;;;;;5052016;28;20437;-51
2020/12/28 01:28:38;;;;;;;3.20;1.00;;;6.10;99.90;;;;;;5051431;28;20441;-51
2020/12/28 01:31:03;;;;;;;2.78;0.60;;;6.10;99.90;;;;;;5051243;28;20524;-51
2020/12/28 01:33:29;;;;;;;2.80;0.60;;;6.10;99.90;;;;;;5052926;28;20475;-51
2020/12/28 01:35:55;;;;;;;2.70;0.55;;;6.10;99.90;;;;;;5051034;28;20446;-51
2020/12/28 01:38:20;;;;;;;3.03;0.70;;;6.20;99.90;;;;;;5052302;28;20405;-51
2020/12/28 01:40:46;;;;;;;3.20;0.85;;;6.20;99.90;;;;;;5050912;28;20382;-51
2020/12/28 01:43:12;;;;;;;3.37;0.70;;;6.10;99.90;;;;;;5051742;28;20739;-51
2020/12/28 01:45:38;;;;;;;2.70;0.88;;;6.20;99.90;;;;;;5051878;28;20365;-52
2020/12/28 01:48:04;;;;;;;3.13;0.83;;;6.30;99.90;;;;;;5051233;28;20875;-52
2020/12/28 01:50:29;;;;;;;3.72;0.82;;;6.20;99.90;;;;;;5052096;28;20397;-51
2020/12/28 01:52:55;;;;;;;2.90;0.80;;;6.10;99.90;;;;;;5050342;28;20401;-51
2020/12/28 01:55:21;;;;;;;3.10;0.90;;;6.30;99.90;;;;;;5052372;28;20392;-52
2020/12/28 01:57:47;;;;;;;2.80;0.80;;;6.10;99.90;;;;;;5049585;28;20401;-52
2020/12/28 02:00:13;;;;;;;3.03;1.02;;;6.10;99.90;;;;;;5051419;28;20411;-52
2020/12/28 02:02:40;;;;;;;3.00;0.90;;;6.10;99.90;;;;;;5051707;28;20393;-52
2020/12/28 02:05:05;;;;;;;3.38;1.20;;;6.10;99.90;;;;;;5051462;28;20393;-52
2020/12/28 02:07:37;;;;;;;3.50;1.17;;;6.10;99.90;;;;;;5034562;28;21238;-52
2020/12/28 02:10:09;;;;;;;4.10;1.00;;;6.20;99.90;;;;;;5051410;28;20476;-52
2020/12/28 02:12:36;;;;;;;3.10;0.90;;;6.20;99.90;;;;;;5050586;28;20389;-53
2020/12/28 02:15:04;;;;;;;2.90;0.90;;;7.50;99.90;;;;;;5052100;28;20385;-52
2020/12/28 02:17:30;;;;;;;3.83;1.13;;;6.10;99.90;;;;;;5050329;28;20388;-52
2020/12/28 02:19:55;;;;;;;3.00;1.00;;;6.00;99.90;;;;;;5050278;28;20905;-52
2020/12/28 02:22:21;;;;;;;2.90;0.90;;;5.90;99.90;;;;;;5050808;28;20464;-52
2020/12/28 02:24:46;;;;;;;3.00;1.00;;;5.90;99.90;;;;;;5032393;28;20501;-53
2020/12/28 02:27:14;;;;;;;3.20;1.27;;;5.90;99.90;;;;;;5051494;28;20377;-51
2020/12/28 02:29:39;;;;;;;3.00;1.00;;;6.00;99.90;;;;;;5049175;28;20404;-50
2020/12/28 02:32:05;;;;;;;2.90;1.10;;;6.40;99.90;;;;;;5051720;28;20385;-50
2020/12/28 02:34:30;;;;;;;3.47;1.00;;;5.90;99.90;;;;;;5050299;28;20397;-50
2020/12/28 02:36:56;;;;;;;3.03;1.07;;;5.90;99.90;;;;;;5050544;28;21049;-52
2020/12/28 02:39:22;;;;;;;3.15;1.00;;;5.90;99.90;;;;;;5051616;28;20742;-52
2020/12/28 02:41:47;;;;;;;2.90;1.10;;;5.90;99.90;;;;;;5049294;28;20405;-53
2020/12/28 02:44:16;;;;;;;3.10;1.05;;;5.90;99.90;;;;;;5050758;28;20486;-51
2020/12/28 02:46:42;;;;;;;3.03;1.00;;;6.00;99.90;;;;;;5031316;28;20405;-51
2020/12/28 02:49:08;;;;;;;4.10;1.30;;;5.80;99.90;;;;;;5050868;28;20412;-51
2020/12/28 02:51:34;;;;;;;3.23;1.07;;;5.80;99.90;;;;;;5050363;28;20390;-57
2020/12/28 02:53:59;;;;;;;3.50;1.20;;;5.90;99.90;;;;;;5047877;28;20476;-52
2020/12/28 02:56:26;;;;;;;3.92;1.20;;;6.00;99.90;;;;;;5043723;28;20475;-50
2020/12/28 02:58:51;;;;;;;3.22;1.10;;;5.90;99.90;;;;;;5048619;28;20397;-52
2020/12/28 03:01:17;;;;;;;4.50;1.30;;;6.00;99.90;;;;;;5051428;28;20470;-50
2020/12/28 03:03:43;;;;;;;3.40;1.30;;;6.00;99.90;;;;;;5049127;28;20398;-52
2020/12/28 03:06:08;;;;;;;3.17;1.43;;;5.90;99.90;;;;;;5050167;28;20390;-52
2020/12/28 03:08:34;;;;;;;3.58;1.30;;;6.10;99.90;;;;;;5049509;28;20445;-53
2020/12/28 03:10:59;;;;;;;3.47;1.47;;;5.90;99.90;;;;;;5049394;28;20407;-52
2020/12/28 03:13:25;;;;;;;3.60;1.50;;;5.80;99.90;;;;;;5050080;28;20901;-53
2020/12/28 03:15:50;;;;;;;3.60;1.50;;;5.80;99.90;;;;;;5048473;28;20401;-52
2020/12/28 03:18:16;;;;;;;3.22;1.20;;;5.90;99.90;;;;;;5050867;28;20389;-52
2020/12/28 03:20:42;;;;;;;2.83;1.20;;;5.90;99.90;;;;;;5048849;28;20404;-52
2020/12/28 03:23:07;;;;;;;3.00;1.20;;;5.80;99.90;;;;;;5050702;28;20384;-53
2020/12/28 03:25:33;;;;;;;2.80;1.00;;;5.80;99.90;;;;;;5049373;28;20393;-52
2020/12/28 03:27:58;;;;;;;3.25;1.17;;;5.70;99.90;;;;;;5049583;28;20863;-52
2020/12/28 03:30:24;;;;;;;2.90;1.20;;;5.70;99.90;;;;;;5050644;28;20872;-52
2020/12/28 03:32:50;;;;;;;3.60;1.20;;;6.50;99.90;;;;;;5048250;28;20408;-52
2020/12/28 03:35:15;;;;;;;4.07;0.90;;;5.80;99.90;;;;;;5049130;28;20406;-52
2020/12/28 03:37:41;;;;;;;2.60;0.60;;;5.80;99.90;;;;;;5049656;28;20846;-52
2020/12/28 03:40:06;;;;;;;3.30;0.85;;;5.80;99.90;;;;;;5049256;28;20539;-52
2020/12/28 03:42:32;;;;;;;3.10;0.70;;;5.80;99.90;;;;;;5049780;28;20396;-52
2020/12/28 03:44:58;;;;;;;2.90;0.80;;;5.70;99.90;;;;;;5048419;28;20455;-52
2020/12/28 03:47:23;;;;;;;2.95;1.00;;;5.80;99.90;;;;;;5050245;28;20945;-53
2020/12/28 03:49:49;;;;;;;3.50;1.00;;;5.70;99.90;;;;;;5047894;28;20401;-52
2020/12/28 03:52:15;;;;;;;2.90;0.80;;;5.70;99.90;;;;;;5049234;28;20412;-52
2020/12/28 03:54:40;;;;;;;3.40;0.90;;;5.60;99.90;;;;;;5031386;28;20389;-52
2020/12/28 03:57:06;;;;;;;3.70;1.00;;;5.60;99.90;;;;;;5050183;28;20859;-52
2020/12/28 03:59:32;;;;;;;2.90;0.80;;;5.60;99.90;;;;;;5048866;28;20394;-52
2020/12/28 04:01:57;;;;;;;2.67;0.70;;;5.90;99.90;;;;;;5048315;28;20385;-52
2020/12/28 04:04:23;;;;;;;3.30;1.07;;;5.70;99.90;;;;;;5049576;28;20405;-52
2020/12/28 04:06:49;;;;;;;2.85;0.80;;;5.60;99.90;;;;;;5047590;28;20886;-52
2020/12/28 04:09:14;;;;;;;3.40;1.00;;;5.40;99.90;;;;;;5049906;28;20487;-52
2020/12/28 04:11:40;;;;;;;3.28;1.08;;;5.20;99.90;;;;;;5047923;28;20935;-53
2020/12/28 04:14:05;;;;;;;3.30;1.00;;;5.00;99.90;;;;;;5049464;28;20389;-52
2020/12/28 04:16:31;;;;;;;3.67;1.35;;;5.00;99.90;;;;;;5048640;28;20442;-52
2020/12/28 04:18:56;;;;;;;3.50;1.40;;;6.20;99.90;;;;;;5048805;28;20393;-52
2020/12/28 04:21:22;;;;;;;2.90;1.00;;;5.00;99.90;;;;;;5048802;28;20401;-52
2020/12/28 04:23:48;;;;;;;2.80;0.90;;;5.00;99.90;;;;;;5049004;28;20393;-52
2020/12/28 04:26:13;;;;;;;3.00;0.90;;;7.00;99.90;;;;;;5048185;28;20480;-52
2020/12/28 04:28:39;;;;;;;3.08;1.05;;;4.80;99.90;;;;;;5047894;28;20417;-53
2020/12/28 04:31:10;;;;;;;3.00;1.00;;;4.80;99.90;;;;;;5048849;28;20765;-52
2020/12/28 04:33:38;;;;;;;3.75;1.20;;;4.80;99.90;;;;;;5048104;28;20393;-58
2020/12/28 04:36:05;;;;;;;2.88;1.00;;;4.80;99.90;;;;;;5049230;28;20385;-52
2020/12/28 04:38:30;;;;;;;3.00;1.00;;;5.90;99.90;;;;;;5048165;28;20878;-52
2020/12/28 04:40:56;;;;;;;3.10;0.90;;;4.90;99.90;;;;;;5048909;28;20382;-52
2020/12/28 04:43:25;;;;;;;2.60;0.83;;;5.00;99.90;;;;;;5050176;28;20421;-51
2020/12/28 04:45:58;;;;;;;2.80;0.82;;;5.10;99.90;;;;;;5051736;28;20400;-52
2020/12/28 04:48:24;;;;;;;3.13;1.00;;;5.10;99.90;;;;;;5053556;28;20404;-52
2020/12/28 04:50:50;;;;;;;2.50;0.80;;;5.10;99.90;;;;;;5053042;28;20381;-52
2020/12/28 04:53:16;;;;;;;2.80;0.80;;;5.00;99.90;;;;;;5052312;28;20865;-52
2020/12/28 04:55:42;;;;;;;2.20;0.60;;;5.50;99.90;;;;;;5053033;28;20476;-52
2020/12/28 04:58:07;;;;;;;2.30;0.50;;;5.40;99.90;;;;;;5052780;28;20481;-52
2020/12/28 05:00:33;;;;;;;2.90;0.70;;;5.20;99.90;;;;;;5052539;28;20874;-52
2020/12/28 05:02:59;;;;;;;2.70;0.60;;;5.10;99.90;;;;;;5052551;28;20381;-54
2020/12/28 05:05:24;;;;;;;2.45;0.55;;;5.10;99.90;;;;;;5030700;28;20421;-52
2020/12/28 05:07:51;;;;;;;2.33;0.40;;;6.10;99.90;;;;;;5046375;28;20607;-52
2020/12/28 05:10:26;;;;;;;2.42;0.60;;;5.20;99.90;;;;;;5051800;28;20476;-52
2020/12/28 05:12:53;;;;;;;2.20;0.40;;;5.10;99.90;;;;;;5050600;28;20433;-52
2020/12/28 05:15:19;;;;;;;2.40;0.50;;;5.80;99.90;;;;;;5052911;28;20771;-52
2020/12/28 05:17:54;;;;;;;2.30;0.40;;;5.20;99.90;;;;;;5051361;28;20715;-52
2020/12/28 05:20:24;;;;;;;3.10;0.50;;;5.10;99.90;;;;;;5053075;28;20424;-52
2020/12/28 05:22:51;;;;;;;2.80;0.30;;;5.90;99.90;;;;;;5051807;28;20409;-53
2020/12/28 05:25:17;;;;;;;2.38;0.50;;;5.20;99.90;;;;;;5052114;28;20412;-52
2020/12/28 05:27:50;;;;;;;2.40;0.40;;;5.30;99.90;;;;;;5050742;28;20878;-54
2020/12/28 05:30:19;;;;;;;2.20;0.40;;;5.30;99.90;;;;;;5052639;28;20417;-52
2020/12/28 05:32:46;;;;;;;2.50;0.40;;;6.00;99.90;;;;;;5051053;28;20397;-54
2020/12/28 05:35:16;;;;;;;3.05;0.70;;;5.30;99.90;;;;;;5052768;28;20438;-52
2020/12/28 05:37:45;;;;;;;2.60;0.60;;;5.30;99.90;;;;;;5050534;28;20454;-52
2020/12/28 05:40:12;;;;;;;2.65;0.80;;;5.30;99.90;;;;;;5051854;28;20391;-52
2020/12/28 05:42:49;;;;;;;2.90;0.70;;;5.20;99.90;;;;;;5051078;28;20863;-53
2020/12/28 05:45:15;;;;;;;2.40;0.60;;;6.20;99.90;;;;;;5051889;28;20378;-52
2020/12/28 05:47:44;;;;;;;2.50;0.50;;;6.20;99.90;;;;;;5050541;28;20424;-53
2020/12/28 05:50:10;;;;;;;3.30;0.70;;;5.10;99.90;;;;;;5052591;28;20388;-52
2020/12/28 05:52:46;;;;;;;2.67;0.52;;;5.10;99.90;;;;;;5050996;28;20401;-58
2020/12/28 05:55:16;;;;;;;2.40;0.50;;;5.10;99.90;;;;;;5051819;28;20940;-52
2020/12/28 05:57:46;;;;;;;2.20;0.40;;;5.30;99.90;;;;;;5050400;28;20405;-52
2020/12/28 06:00:11;;;;;;;2.83;0.50;;;5.40;99.90;;;;;;5052102;28;20427;-52
2020/12/28 06:02:40;;;;;;;3.97;0.63;;;7.00;99.90;;;;;;5050399;28;20405;-58
2020/12/28 06:05:14;;;;;;;2.80;0.50;;;5.40;99.90;;;;;;5052101;28;20392;-52
2020/12/28 06:07:39;;;;;;;3.30;0.77;;;5.40;99.90;;;;;;5051690;28;20401;-52
2020/12/28 06:10:06;;;;;;;2.95;0.60;;;7.30;99.90;;;;;;5050686;28;20409;-52
2020/12/28 06:12:32;;;;;;;2.90;0.80;;;5.40;99.90;;;;;;5051718;28;20378;-52
2020/12/28 06:15:01;;;;;;;2.60;0.65;;;5.30;99.90;;;;;;5050141;28;20423;-53
2020/12/28 06:17:37;;;;;;;2.50;0.57;;;5.30;99.90;;;;;;5051818;28;20922;-52
2020/12/28 06:20:07;;;;;;;2.50;0.60;;;5.30;99.90;;;;;;5050759;28;20882;-52
2020/12/28 06:22:33;;;;;;;2.42;0.60;;;5.40;99.90;;;;;;5051648;28;20377;-52
2020/12/28 06:25:02;;;;;;;2.80;0.50;;;6.70;99.90;;;;;;5049530;28;20548;-51
2020/12/28 06:27:42;;;;;;;2.25;0.50;;;5.30;99.90;;;;;;5050503;28;20398;-52
2020/12/28 06:30:20;;;;;;;2.40;0.55;;;5.30;99.90;;;;;;5050716;28;20433;-52
2020/12/28 06:32:49;;;;;;;2.47;0.60;;;5.30;99.90;;;;;;5050651;28;20397;-52
2020/12/28 06:35:16;;;;;;;2.33;0.50;;;5.20;99.90;;;;;;5050088;28;20874;-49
2020/12/28 06:37:44;;;;;;;2.50;0.50;;;5.20;99.90;;;;;;5050636;28;20786;-51
2020/12/28 06:40:15;;;;;;;2.90;0.50;;;5.10;99.90;;;;;;5050385;28;20940;-51
2020/12/28 06:42:41;;;;;;;2.28;0.40;;;5.20;99.90;;;;;;5049131;28;20522;-51
2020/12/28 06:45:15;;;;;;;2.70;0.60;;;6.00;99.90;;;;;;5051179;28;20412;-51
2020/12/28 06:47:41;;;;;;;2.28;0.45;;;5.20;99.90;;;;;;5050665;28;20787;-57
2020/12/28 06:50:07;;;;;;;2.70;0.70;;;5.20;99.90;;;;;;5049892;28;20417;-57
2020/12/28 06:52:33;;;;;;;2.70;0.60;;;5.30;99.90;;;;;;5051222;28;20386;-57
2020/12/28 06:55:12;;;;;;;2.30;0.50;;;5.40;99.90;;;;;;5049367;28;21309;-57
2020/12/28 06:57:38;;;;;;;3.25;0.60;;;5.40;99.90;;;;;;5038751;28;20891;-59
2020/12/28 07:00:06;;;;;;;2.80;0.68;;;5.30;99.90;;;;;;5048361;28;20402;-57
2020/12/28 07:02:32;;;;;;;3.08;0.50;;;5.40;99.90;;;;;;5050488;28;20408;-58
2020/12/28 07:05:01;;;;;;;2.30;0.50;;;5.40;99.90;;;;;;5047944;28;20389;-53
2020/12/28 07:07:27;;;;;;;2.80;0.60;;;6.70;99.90;;;;;;5042147;28;20415;-55
2020/12/28 07:09:52;;;;;;;3.40;0.60;;;5.50;99.90;;;;;;5048715;28;20386;-51
2020/12/28 07:12:21;;;;;;;3.35;0.65;;;5.30;99.90;;;;;;5048706;28;20913;-53
2020/12/28 07:14:46;;;;;;;2.30;0.50;;;5.30;99.90;;;;;;5046547;28;20488;-51
2020/12/28 07:17:12;;;;;;;2.70;0.60;;;5.20;99.90;;;;;;5049708;28;20473;-51
2020/12/28 07:19:38;;;;;;;2.50;0.50;;;5.70;99.90;;;;;;5049112;28;20393;-58
2020/12/28 07:22:03;;;;;;;3.00;0.40;;;5.20;99.90;;;;;;5049940;28;20672;-52
2020/12/28 07:24:29;;;;;;;2.60;0.60;;;5.00;99.90;;;;;;5049671;28;20381;-52
2020/12/28 07:26:55;;;;;;;3.97;0.70;;;5.00;99.90;;;;;;5048435;28;20483;-51
2020/12/28 07:29:21;;;;;;;2.50;0.70;;;6.50;99.90;;;;;;5050104;28;20871;-51
2020/12/28 07:31:47;;;;;;;2.20;0.57;;;6.20;99.90;;;;;;5048458;28;20890;-52
2020/12/28 07:34:18;;;;;;;2.40;0.60;;;5.10;99.90;;;;;;5043865;28;20401;-52
2020/12/28 07:36:51;;;;;;;2.72;0.70;;;5.00;99.90;;;;;;5046485;28;20389;-52
2020/12/28 07:39:18;;;;;;;2.67;0.68;;;5.00;99.90;;;;;;5048393;28;20413;-53
2020/12/28 07:41:44;;;;;;;2.80;0.70;;;4.90;99.90;;;;;;5045965;28;20402;-53
2020/12/28 07:44:15;;;;;;;2.50;0.50;;;5.30;99.90;;;;;;5047677;28;20400;-52
2020/12/28 07:46:46;;;;;;;3.60;0.70;;;4.90;99.90;;;;;;5048452;28;20397;-53
2020/12/28 07:49:26;;;;;;;2.90;0.80;;;4.80;99.90;;;;;;5048660;28;20460;-53
2020/12/28 07:52:07;;;;;;;3.15;0.70;;;4.90;99.90;;;;;;5047319;28;20821;-54
2020/12/28 07:54:41;;;;;;;3.30;0.60;;;4.90;99.90;;;;;;5047792;28;20412;-51
2020/12/28 07:57:15;;;;;;;3.30;0.80;;;4.90;99.90;;;;;;5047695;28;20404;-51
2020/12/28 08:00:11;;;;;;;2.63;0.60;;;4.90;99.90;;;;;;5044174;28;20435;-50
2020/12/28 08:02:42;;;;;;;3.10;0.60;;;4.90;99.90;;;;;;5048575;28;20419;-58
2020/12/28 08:05:10;;;;;;;3.40;0.70;;;4.80;99.90;;;;;;5045793;28;20480;-52
2020/12/28 08:07:37;;;;;;;2.90;0.70;;;4.90;99.90;;;;;;5047626;28;20420;-53
2020/12/28 08:10:10;;;;;;;4.72;0.70;;;4.90;99.90;;;;;;5048642;28;20377;-54
2020/12/28 08:12:51;;;;;;;3.08;0.80;;;4.90;99.90;;;;;;5045596;28;20917;-57
2020/12/28 08:15:27;;;;;;;4.32;0.80;;;4.90;99.90;;;;;;5047069;28;20535;-53
2020/12/28 08:18:04;;;;;;;3.63;0.85;;;4.90;99.90;;;;;;5044933;28;20405;-53
2020/12/28 08:20:30;;;;;;;3.85;0.90;;;5.00;99.90;;;;;;5045287;28;20413;-53
2020/12/28 08:22:56;;;;;;;4.00;0.80;;;5.10;99.90;;;;;;5045744;28;20420;-53
2020/12/28 08:25:27;;;;;;;3.30;0.90;;;5.10;99.90;;;;;;5045968;28;20403;-53
2020/12/28 08:27:54;;;;;;;3.08;0.80;;;5.00;99.90;;;;;;5045233;28;20462;-56
2020/12/28 08:30:20;;;;;;;3.65;0.88;;;5.10;99.90;;;;;;5047547;28;20413;-51
2020/12/28 08:32:48;;;;;;;6.40;1.00;;;5.10;99.90;;;;;;5047270;28;20389;-51
2020/12/28 08:35:14;;;;;;;4.30;0.80;;;5.20;99.90;;;;;;5046639;28;20393;-51
2020/12/28 08:37:50;;;;;;;3.83;0.83;;;6.70;99.90;;;;;;5047510;28;20398;-57
2020/12/28 08:40:17;;;;;;;3.47;1.00;;;5.30;99.90;;;;;;5046893;28;20736;-53
2020/12/28 08:42:43;;;;;;;4.57;1.13;;;6.10;99.90;;;;;;5047839;28;20380;-52
2020/12/28 08:45:22;;;;;;;3.90;0.80;;;7.00;99.90;;;;;;5047967;28;20454;-52
2020/12/28 08:47:55;;;;;;;3.72;0.70;;;5.20;99.90;;;;;;5047299;28;20420;-53
2020/12/28 08:50:24;;;;;;;3.83;0.80;;;5.50;99.90;;;;;;5048917;28;20527;-52
2020/12/28 08:52:54;;;;;;;2.97;0.80;;;5.10;99.90;;;;;;5047143;28;20419;-53
2020/12/28 08:55:20;;;;;;;2.80;0.88;;;5.30;99.90;;;;;;5046336;28;20855;-53
2020/12/28 08:57:54;;;;;;;3.60;0.70;;;5.10;99.90;;;;;;5044152;28;20515;-56
2020/12/28 09:00:23;;;;;;;3.58;0.80;;;5.00;99.90;;;;;;5045707;28;20410;-52
2020/12/28 09:02:51;;;;;;;3.10;0.60;;;5.00;99.90;;;;;;5039543;28;20577;-52
2020/12/28 09:05:17;;;;;;;3.63;0.85;;;5.10;99.90;;;;;;5045363;28;20881;-53
2020/12/28 09:07:42;;;;;;;3.35;0.80;;;5.10;99.90;;;;;;5045266;28;20401;-56
2020/12/28 09:10:08;;;;;;;4.10;0.80;;;5.20;99.90;;;;;;5045895;28;20405;-52
2020/12/28 09:12:34;;;;;;;4.55;0.95;;;6.50;99.90;;;;;;5047239;28;20393;-52
2020/12/28 09:14:59;;;;;;;3.10;0.80;;;5.20;99.90;;;;;;5045406;28;20386;-52
2020/12/28 09:17:25;;;;;;;3.37;0.67;;;5.20;99.90;;;;;;5046207;28;20397;-53
2020/12/28 09:19:51;;;;;;;2.63;0.70;;;5.20;99.90;;;;;;5046227;28;20419;-52
2020/12/28 09:22:16;;;;;;;3.30;0.60;;;5.20;99.90;;;;;;5046717;28;20392;-52
2020/12/28 09:24:42;;;;;;;2.60;0.52;;;5.10;99.90;;;;;;5044633;28;20397;-53
2020/12/28 09:27:07;;;;;;;3.13;0.73;;;5.20;99.90;;;;;;5047839;28;20397;-52
2020/12/28 09:29:33;;;;;;;2.20;0.50;;;5.30;99.90;;;;;;5047402;28;20444;-52
2020/12/28 09:31:59;;;;;;;3.17;0.60;;;6.10;99.90;;;;;;5048342;28;20938;-52
2020/12/28 09:34:25;;;;;;;2.40;0.40;;;5.30;99.90;;;;;;5050929;28;20786;-52
2020/12/28 09:37:02;;;;;;;4.28;0.63;;;6.70;99.90;;;;;;5050110;28;20385;-52
2020/12/28 09:39:28;;;;;;;3.40;0.85;;;7.20;99.90;;;;;;5050387;28;20409;-52
2020/12/28 09:41:54;;;;;;;4.95;1.00;;;6.00;99.90;;;;;;5049569;28;20401;-52
2020/12/28 09:44:19;;;;;;;5.70;1.30;;;5.50;99.90;;;;;;5051494;28;20854;-52
2020/12/28 09:46:45;;;;;;;4.15;0.90;;;5.60;99.90;;;;;;5049907;28;20404;-52
2020/12/28 09:49:11;;;;;;;4.00;1.00;;;5.50;99.90;;;;;;5051620;28;20410;-51
2020/12/28 09:51:36;;;;;;;4.50;1.10;;;5.50;99.90;;;;;;5051356;28;20447;-55
2020/12/28 09:54:02;;;;;;;3.60;1.10;;;5.50;99.90;;;;;;5049724;28;20468;-52
2020/12/28 09:56:27;;;;;;;4.90;1.00;;;6.40;99.90;;;;;;5049871;28;20389;-51
2020/12/28 09:58:53;;;;;;;5.47;1.40;;;5.80;99.90;;;;;;5049851;28;20770;-52
2020/12/28 10:01:19;;;;;;;6.27;1.40;;;5.80;99.90;;;;;;5048743;28;20847;-52
2020/12/28 10:03:44;;;;;;;4.57;1.27;;;5.80;99.90;;;;;;5049196;28;21157;-52
2020/12/28 10:06:36;;;;;;;2.80;0.90;;;5.80;99.90;;;;;;5051189;28;20851;-53
2020/12/28 10:09:12;;;;;;;3.53;1.27;;;5.70;99.90;;;;;;5049346;28;20413;-53
2020/12/28 10:11:38;;;;;;;5.40;1.50;;;5.80;99.90;;;;;;5050025;28;20389;-59
2020/12/28 10:14:05;;;;;;;5.47;2.70;;;5.70;99.90;;;;;;5048952;28;20997;-53
2020/12/28 10:16:32;;;;;;;14.45;7.70;;;5.70;99.90;;;;;;5050622;28;20435;-51
2020/12/28 10:18:58;;;;;;;3.70;1.60;;;5.70;99.90;;;;;;5050383;28;20408;-52
2020/12/28 10:21:25;;;;;;;4.60;1.80;;;5.80;99.90;;;;;;5048616;28;20413;-52
2020/12/28 10:23:50;;;;;;;5.10;2.80;;;5.80;99.90;;;;;;5049794;28;20435;-56
2020/12/28 10:26:24;;;;;;;8.18;5.68;;;7.80;99.90;;;;;;5049370;28;20398;-53
2020/12/28 10:28:50;;;;;;;4.90;2.40;;;5.90;99.90;;;;;;5049257;28;20428;-54
2020/12/28 10:31:17;;;;;;;6.13;2.50;;;6.10;99.90;;;;;;5049401;28;20467;-52
2020/12/28 10:33:45;;;;;;;6.03;2.33;;;8.10;99.90;;;;;;5048904;28;20612;-52
2020/12/28 10:36:32;;;;;;;13.65;7.97;;;6.20;99.90;;;;;;5050017;28;20449;-51
2020/12/28 10:38:59;;;;;;;6.95;2.47;;;6.20;99.90;;;;;;5045237;28;20627;-52
2020/12/28 10:41:26;;;;;;;5.60;3.15;;;6.20;99.90;;;;;;5049633;28;20378;-52
2020/12/28 10:43:52;;;;;;;6.90;3.13;;;6.20;99.90;;;;;;5048170;28;20394;-52
2020/12/28 10:46:18;;;;;;;6.85;2.33;;;6.20;99.90;;;;;;5049430;28;20890;-53
2020/12/28 10:48:43;;;;;;;5.60;2.30;;;6.20;99.90;;;;;;5047648;28;20572;-53
2020/12/28 10:51:12;;;;;;;4.60;1.70;;;4.90;99.90;;;;;;5048007;28;20492;-55
2020/12/28 10:53:38;;;;;;;4.05;1.60;;;6.10;99.90;;;;;;5048962;28;20420;-52
2020/12/28 10:56:07;;;;;;;9.02;5.63;;;6.10;99.90;;;;;;5048356;28;20397;-51
2020/12/28 10:58:34;;;;;;;7.40;4.82;;;6.00;99.90;;;;;;5049461;28;20804;-51
2020/12/28 11:01:00;;;;;;;4.50;2.70;;;6.10;99.90;;;;;;5048318;28;20484;-51
2020/12/28 11:03:26;;;;;;;6.65;2.70;;;6.10;99.90;;;;;;5048019;28;20540;-52
2020/12/28 11:05:52;;;;;;;5.30;2.78;;;6.20;99.90;;;;;;5046280;28;20470;-51
2020/12/28 11:08:17;;;;;;;4.67;2.70;;;6.20;99.90;;;;;;5049569;28;20409;-51
2020/12/28 11:10:43;;;;;;;6.18;3.20;;;6.20;99.90;;;;;;5047310;28;20401;-58
2020/12/28 11:13:09;;;;;;;5.70;2.20;;;6.10;99.90;;;;;;5048697;28;20386;-51
2020/12/28 11:15:35;;;;;;;6.70;2.20;;;6.30;99.90;;;;;;5047941;28;20503;-52
2020/12/28 11:18:01;;;;;;;4.68;2.58;;;6.10;99.90;;;;;;5047374;28;20423;-51
2020/12/28 11:20:27;;;;;;;6.53;2.90;;;6.20;99.90;;;;;;5046888;28;20750;-51
2020/12/28 11:22:53;;;;;;;5.05;2.58;;;6.10;99.90;;;;;;5048547;28;20369;-54
2020/12/28 11:25:19;;;;;;;7.50;2.40;;;6.20;99.90;;;;;;5047478;28;20398;-53
2020/12/28 11:27:44;;;;;;;4.63;2.13;;;6.30;99.90;;;;;;5048535;28;20391;-51
2020/12/28 11:30:10;;;;;;;5.10;2.17;;;6.30;99.90;;;;;;5026842;28;20499;-50
2020/12/28 11:32:36;;;;;;;4.43;1.98;;;6.10;99.90;;;;;;5047864;28;20452;-50
2020/12/28 11:35:03;;;;;;;5.20;2.37;;;6.30;99.90;;;;;;5047101;28;20404;-50
2020/12/28 11:37:31;;;;;;;5.40;2.58;;;6.30;99.90;;;;;;5048957;28;20388;-51
2020/12/28 11:39:57;;;;;;;5.82;2.90;;;6.90;99.90;;;;;;5047987;28;20405;-50
2020/12/28 11:42:23;;;;;;;5.53;2.63;;;6.40;99.90;;;;;;5048006;28;20397;-51
2020/12/28 11:44:48;;;;;;;4.87;2.50;;;6.30;99.90;;;;;;5038813;28;20390;-52
2020/12/28 11:47:14;;;;;;;5.50;2.60;;;6.30;99.90;;;;;;5048613;28;20401;-50
2020/12/28 11:49:39;;;;;;;4.00;1.97;;;6.30;99.90;;;;;;5048804;28;20843;-55
2020/12/28 11:52:05;;;;;;;4.47;2.20;;;6.40;99.90;;;;;;5046051;28;20409;-50
2020/12/28 11:54:31;;;;;;;5.38;2.30;;;6.50;99.90;;;;;;5047756;28;20743;-51
2020/12/28 11:56:56;;;;;;;5.73;2.00;;;6.50;99.90;;;;;;5046778;28;20408;-55
2020/12/28 11:59:22;;;;;;;4.95;2.22;;;6.60;99.90;;;;;;5048223;28;20433;-51
2020/12/28 12:01:48;;;;;;;4.67;2.40;;;6.60;99.90;;;;;;5047034;28;20397;-50
2020/12/28 12:04:15;;;;;;;4.60;2.42;;;6.70;99.90;;;;;;5048918;28;20471;-50
2020/12/28 12:06:41;;;;;;;5.50;2.40;;;6.60;99.90;;;;;;5048106;28;20397;-55
2020/12/28 12:09:14;;;;;;;4.88;2.90;;;6.30;99.90;;;;;;5045663;28;20427;-55
2020/12/28 12:11:47;;;;;;;5.70;2.40;;;6.20;99.90;;;;;;5039243;28;20437;-50
2020/12/28 12:14:14;;;;;;;5.60;2.33;;;6.20;99.90;;;;;;5047255;28;20457;-51
2020/12/28 12:16:41;;;;;;;4.87;1.90;;;6.20;99.90;;;;;;5046136;28;20416;-51
2020/12/28 12:19:06;;;;;;;6.53;2.58;;;6.30;99.90;;;;;;5046676;28;20401;-50
2020/12/28 12:21:32;;;;;;;4.60;2.27;;;6.40;99.90;;;;;;5049082;28;20408;-53
2020/12/28 12:23:59;;;;;;;6.93;3.05;;;6.40;99.90;;;;;;5045670;28;20419;-50
2020/12/28 12:26:25;;;;;;;4.80;2.60;;;6.40;99.90;;;;;;5047094;28;20489;-51
2020/12/28 12:28:52;;;;;;;4.65;2.47;;;7.10;99.90;;;;;;5047855;28;20420;-55
2020/12/28 12:31:18;;;;;;;7.20;2.80;;;6.50;99.90;;;;;;5048076;28;20488;-51
2020/12/28 12:33:45;;;;;;;5.00;2.50;;;6.50;99.90;;;;;;5047062;28;20405;-60
2020/12/28 12:36:11;;;;;;;4.45;1.77;;;6.50;99.90;;;;;;5048827;28;20421;-54
2020/12/28 12:38:36;;;;;;;4.30;2.00;;;6.40;99.90;;;;;;5044108;28;20425;-51
2020/12/28 12:41:03;;;;;;;5.30;2.08;;;6.20;99.90;;;;;;5047285;28;20420;-51
2020/12/28 12:43:28;;;;;;;5.00;2.08;;;6.30;99.90;;;;;;5047496;28;20393;-51
2020/12/28 12:45:54;;;;;;;4.70;1.90;;;6.30;99.90;;;;;;5029592;28;20397;-51
2020/12/28 12:48:20;;;;;;;4.23;1.73;;;6.30;99.90;;;;;;5048362;28;20447;-51
2020/12/28 12:50:46;;;;;;;3.90;1.70;;;6.40;99.90;;;;;;5046689;28;20728;-62
2020/12/28 12:53:11;;;;;;;5.03;2.30;;;6.40;99.90;;;;;;5026790;28;20445;-53
2020/12/28 12:55:43;;;;;;;3.73;1.80;;;6.30;99.90;;;;;;5047159;28;20413;-50
2020/12/28 12:58:09;;;;;;;3.70;1.50;;;6.20;99.90;;;;;;5045766;28;20413;-50